Time;durP1;ratioP1;P1;durP2;ratioP2;P2;SDS_P1;SDS_P2;PMS_P1;PMS_P2;Temp;Humidity;BMP_temperature;BMP_pressure;BME280_temperature;BME280_humidity;BME280_pressure;Samples;Min_cycle;Max_cycle;Signal;HPM_P1;HPM_P2
2023/08/22 00:00:05;;;;;;;4.23;3.83;;;;;;;21.25;64.42;93845.28;513716;28;1194;-49
2023/08/22 00:00:20;;;;;;;3.85;3.45;;;;;;;21.24;64.49;93850.19;513740;28;918;-46
2023/08/22 00:00:36;;;;;;;4.93;3.70;;;;;;;21.24;64.58;93841.00;513785;28;765;-47
2023/08/22 00:00:51;;;;;;;5.07;4.00;;;;;;;21.23;64.52;93847.97;513138;28;1711;-47
2023/08/22 00:01:07;;;;;;;5.03;3.75;;;;;;;21.22;64.64;93844.44;515109;28;992;-47
2023/08/22 00:01:22;;;;;;;5.37;3.67;;;;;;;21.23;64.62;93847.97;515517;28;1138;-46
2023/08/22 00:01:38;;;;;;;4.22;3.80;;;;;;;21.23;64.59;93851.50;515491;28;1057;-47
2023/08/22 00:01:53;;;;;;;4.10;3.70;;;;;;;21.22;64.68;93855.69;515649;28;799;-47
2023/08/22 00:02:09;;;;;;;3.70;3.40;;;;;;;21.22;64.80;93850.06;515606;28;799;-47
2023/08/22 00:02:27;;;;;;;3.72;3.42;;;;;;;21.14;64.62;93836.25;515367;28;1212;-47
2023/08/22 00:02:43;;;;;;;4.03;3.63;;;;;;;21.22;64.71;93852.88;515563;28;892;-47
2023/08/22 00:02:58;;;;;;;4.20;3.80;;;;;;;21.22;64.76;93858.47;514101;28;1379;-48
2023/08/22 00:03:14;;;;;;;4.28;3.85;;;;;;;21.23;64.72;93854.31;513857;28;833;-47
2023/08/22 00:03:29;;;;;;;4.33;3.60;;;;;;;21.21;64.80;93854.19;513737;28;778;-47
2023/08/22 00:03:47;;;;;;;4.05;3.65;;;;;;;21.22;64.77;93852.13;513762;28;805;-46
2023/08/22 00:04:02;;;;;;;4.15;3.75;;;;;;;21.21;64.85;93850.66;513881;28;1087;-47
2023/08/22 00:04:18;;;;;;;3.80;3.47;;;;;;;21.21;64.72;93856.25;513144;28;1790;-46
2023/08/22 00:04:33;;;;;;;4.37;3.67;;;;;;;21.20;64.74;93857.63;513607;28;919;-47
2023/08/22 00:04:48;;;;;;;4.57;3.70;;;;;;;21.19;64.76;93853.34;512892;28;782;-46
2023/08/22 00:05:04;;;;;;;3.93;3.53;;;;;;;21.18;64.77;93851.88;511868;28;848;-46
2023/08/22 00:05:20;;;;;;;3.38;3.08;;;;;;;21.17;64.86;93862.38;512490;28;814;-48
2023/08/22 00:05:35;;;;;;;3.55;3.25;;;;;;;21.17;64.87;93858.84;513582;28;1107;-47
2023/08/22 00:05:51;;;;;;;4.30;3.90;;;;;;;21.14;64.93;93858.72;513831;28;824;-49
2023/08/22 00:06:07;;;;;;;4.40;4.00;;;;;;;21.14;64.89;93857.97;513843;28;784;-47
2023/08/22 00:06:24;;;;;;;3.88;3.53;;;;;;;21.14;65.03;93857.97;513433;28;1071;-47
2023/08/22 00:06:39;;;;;;;3.70;3.40;;;;;;;21.14;65.01;93858.72;513593;28;2372;-48
2023/08/22 00:06:54;;;;;;;4.18;3.78;;;;;;;21.13;65.13;93857.25;513113;28;1732;-47
2023/08/22 00:07:10;;;;;;;4.20;3.80;;;;;;;21.11;65.14;93862.72;513310;28;1112;-47
2023/08/22 00:07:25;;;;;;;3.87;3.53;;;;;;;21.12;65.28;93857.84;512520;28;888;-48
2023/08/22 00:07:41;;;;;;;3.90;3.60;;;;;;;21.12;65.32;93869.81;513762;28;916;-47
2023/08/22 00:07:56;;;;;;;4.10;3.80;;;;;;;21.12;65.51;93861.41;513429;28;923;-47
2023/08/22 00:08:11;;;;;;;4.05;3.65;;;;;;;21.12;65.38;93860.66;511833;28;856;-46
2023/08/22 00:08:27;;;;;;;4.10;3.57;;;;;;;21.11;65.33;93868.34;512823;28;895;-46
2023/08/22 00:08:42;;;;;;;4.03;3.60;;;;;;;21.11;65.31;93857.09;513808;28;1155;-46
2023/08/22 00:08:58;;;;;;;4.07;3.67;;;;;;;21.11;65.38;93859.91;513727;28;801;-49
2023/08/22 00:09:13;;;;;;;4.17;3.77;;;;;;;21.12;65.43;93866.28;511891;28;940;-46
2023/08/22 00:09:28;;;;;;;4.30;3.90;;;;;;;21.09;65.63;93859.78;513020;28;818;-49
2023/08/22 00:09:44;;;;;;;3.75;3.45;;;;;;;21.09;65.52;93859.78;513748;28;1611;-46
2023/08/22 00:09:59;;;;;;;3.53;3.23;;;;;;;21.09;65.49;93856.28;513765;28;815;-46
2023/08/22 00:10:15;;;;;;;4.27;3.87;;;;;;;21.08;65.55;93861.16;513732;28;1285;-46
2023/08/22 00:10:34;;;;;;;4.88;4.03;;;;;;;21.07;65.50;93862.47;513766;28;919;-46
2023/08/22 00:10:50;;;;;;;4.22;3.70;;;;;;;21.06;65.52;93861.03;513803;28;852;-46
2023/08/22 00:11:05;;;;;;;4.97;3.80;;;;;;;21.05;65.52;93865.16;513766;28;824;-46
2023/08/22 00:11:20;;;;;;;4.80;3.70;;;;;;;21.04;65.55;93862.97;512680;28;1818;-46
2023/08/22 00:11:36;;;;;;;4.23;3.80;;;;;;;20.85;65.70;93832.28;513673;28;1028;-46
2023/08/22 00:11:51;;;;;;;4.32;3.92;;;;;;;21.05;65.97;93865.16;513742;28;797;-46
2023/08/22 00:12:07;;;;;;;4.33;3.93;;;;;;;21.05;65.71;93867.25;513799;28;817;-47
2023/08/22 00:12:23;;;;;;;4.45;4.00;;;;;;;21.04;65.66;93866.53;512675;28;859;-48
2023/08/22 00:12:38;;;;;;;4.43;3.97;;;;;;;21.05;65.68;93862.34;513806;28;928;-47
2023/08/22 00:12:54;;;;;;;4.57;3.77;;;;;;;21.05;65.72;93861.63;513787;28;872;-46
2023/08/22 00:13:09;;;;;;;4.88;3.85;;;;;;;21.05;65.73;93862.34;513707;28;1115;-46
2023/08/22 00:13:25;;;;;;;4.70;3.90;;;;;;;21.05;65.74;93862.34;513795;28;789;-46
2023/08/22 00:13:40;;;;;;;4.50;4.00;;;;;;;21.05;65.75;93862.34;513754;28;931;-46
2023/08/22 00:13:55;;;;;;;4.03;3.70;;;;;;;21.05;65.79;93862.34;513744;28;1147;-47
2023/08/22 00:14:11;;;;;;;4.87;3.83;;;;;;;21.05;66.17;93862.34;513898;28;844;-46
2023/08/22 00:14:26;;;;;;;5.87;4.50;;;;;;;21.05;66.06;93862.34;513728;28;771;-47
2023/08/22 00:14:41;;;;;;;4.60;4.18;;;;;;;21.06;65.96;93865.91;513799;28;1202;-48
2023/08/22 00:14:57;;;;;;;4.20;3.80;;;;;;;21.04;66.13;93866.53;513738;28;825;-46
2023/08/22 00:15:13;;;;;;;4.40;4.00;;;;;;;21.05;66.12;93864.44;513786;28;1619;-46
2023/08/22 00:15:28;;;;;;;4.47;4.07;;;;;;;21.05;66.15;93858.84;513821;28;805;-46
2023/08/22 00:15:44;;;;;;;4.53;4.13;;;;;;;21.05;66.06;93862.34;513797;28;818;-46
2023/08/22 00:16:02;;;;;;;4.53;4.10;;;;;;;21.06;65.91;93868.72;512536;28;1933;-49
2023/08/22 00:16:17;;;;;;;4.32;3.95;;;;;;;21.06;65.90;93863.09;513710;28;935;-46
2023/08/22 00:16:33;;;;;;;4.17;3.77;;;;;;;21.06;65.89;93863.84;513745;28;837;-46
2023/08/22 00:16:48;;;;;;;4.30;3.70;;;;;;;21.07;66.04;93858.97;513761;28;878;-46
2023/08/22 00:17:04;;;;;;;5.07;4.00;;;;;;;21.07;65.98;93864.56;513850;28;896;-47
2023/08/22 00:17:20;;;;;;;4.88;3.80;;;;;;;21.07;65.96;93865.28;513711;28;898;-47
2023/08/22 00:17:36;;;;;;;3.95;3.63;;;;;;;21.07;65.92;93859.66;513666;28;825;-46
2023/08/22 00:17:52;;;;;;;4.70;4.30;;;;;;;21.07;65.89;93865.28;513801;28;881;-46
2023/08/22 00:18:08;;;;;;;4.95;4.45;;;;;;;21.05;65.97;93862.34;512244;28;939;-46
2023/08/22 00:18:23;;;;;;;4.60;4.20;;;;;;;21.08;65.90;93866.03;512327;28;894;-46
2023/08/22 00:18:38;;;;;;;4.37;3.97;;;;;;;21.07;65.94;93859.66;513866;28;844;-46
2023/08/22 00:18:54;;;;;;;4.03;3.63;;;;;;;21.05;65.91;93853.22;513821;28;847;-46
2023/08/22 00:19:09;;;;;;;4.22;3.83;;;;;;;21.07;65.86;93859.66;513702;28;1024;-46
2023/08/22 00:19:24;;;;;;;4.53;4.00;;;;;;;21.07;66.03;93865.28;513804;28;874;-47
2023/08/22 00:19:40;;;;;;;4.43;3.70;;;;;;;21.00;66.21;93846.59;513817;28;915;-48
2023/08/22 00:19:55;;;;;;;3.97;3.58;;;;;;;21.09;66.12;93861.88;513406;28;1985;-46
2023/08/22 00:20:12;;;;;;;3.90;3.60;;;;;;;21.09;66.09;93856.97;513108;28;785;-46
2023/08/22 00:20:27;;;;;;;5.72;3.70;;;;;;;21.10;66.07;93860.53;512676;28;864;-46
2023/08/22 00:20:42;;;;;;;6.45;4.00;;;;;;;21.10;66.07;93861.28;513826;28;1135;-48
2023/08/22 00:20:58;;;;;;;4.37;3.97;;;;;;;21.10;65.80;93857.72;513790;28;816;-49
2023/08/22 00:21:13;;;;;;;4.27;3.90;;;;;;;21.11;66.10;93862.00;513143;28;1483;-46
2023/08/22 00:21:30;;;;;;;4.88;4.18;;;;;;;21.10;66.01;93852.84;512849;28;1024;-46
2023/08/22 00:21:45;;;;;;;5.25;3.95;;;;;;;21.10;66.04;93855.66;513761;28;948;-46
2023/08/22 00:22:01;;;;;;;4.40;3.60;;;;;;;21.10;66.01;93852.84;513807;28;844;-46
2023/08/22 00:22:16;;;;;;;4.73;4.07;;;;;;;21.11;66.00;93859.19;513645;28;1282;-46
2023/08/22 00:22:32;;;;;;;4.43;4.00;;;;;;;21.10;65.93;93858.47;513791;28;865;-48
2023/08/22 00:22:47;;;;;;;3.90;3.53;;;;;;;21.10;65.95;93858.47;512962;28;1818;-46
2023/08/22 00:23:03;;;;;;;4.17;3.77;;;;;;;21.10;65.93;93855.66;513702;28;1119;-46
2023/08/22 00:23:19;;;;;;;5.05;4.40;;;;;;;21.11;65.94;93859.91;512217;28;874;-45
2023/08/22 00:23:34;;;;;;;4.70;4.23;;;;;;;21.11;65.93;93847.97;513789;28;836;-46
2023/08/22 00:23:49;;;;;;;4.33;3.93;;;;;;;21.11;65.93;93865.53;513678;28;925;-47
2023/08/22 00:24:05;;;;;;;4.47;4.07;;;;;;;21.09;65.94;93848.56;513828;28;778;-45
2023/08/22 00:24:21;;;;;;;4.93;4.43;;;;;;;21.11;65.82;93857.09;513751;28;1127;-45
2023/08/22 00:24:36;;;;;;;4.78;4.22;;;;;;;21.12;65.82;93855.03;513760;28;876;-48
2023/08/22 00:24:51;;;;;;;4.37;3.97;;;;;;;21.13;65.83;93853.72;513825;28;848;-46
2023/08/22 00:25:08;;;;;;;4.73;3.97;;;;;;;21.13;65.89;93854.44;513791;28;804;-47
2023/08/22 00:25:23;;;;;;;4.20;3.80;;;;;;;21.12;65.84;93858.59;513745;28;874;-47
2023/08/22 00:25:38;;;;;;;4.63;4.17;;;;;;;21.14;65.91;93855.91;513719;28;856;-46
2023/08/22 00:25:54;;;;;;;4.83;4.10;;;;;;;21.16;65.88;93857.38;513783;28;1202;-47
2023/08/22 00:26:09;;;;;;;4.22;3.80;;;;;;;21.16;65.94;93863.00;513749;28;813;-46
2023/08/22 00:26:25;;;;;;;3.97;3.63;;;;;;;21.16;65.77;93860.19;513183;28;1691;-47
2023/08/22 00:26:40;;;;;;;3.88;3.50;;;;;;;21.17;65.70;93862.38;513818;28;814;-47
2023/08/22 00:26:57;;;;;;;4.30;3.63;;;;;;;21.18;65.57;93858.22;512190;28;852;-47
2023/08/22 00:27:12;;;;;;;4.35;3.92;;;;;;;21.18;65.79;93843.47;511813;28;913;-46
2023/08/22 00:27:27;;;;;;;4.65;4.05;;;;;;;21.19;65.36;93854.06;512965;28;1131;-47
2023/08/22 00:27:43;;;;;;;5.10;3.97;;;;;;;21.18;65.29;93858.22;513796;28;856;-46
2023/08/22 00:27:58;;;;;;;4.43;4.03;;;;;;;21.19;65.30;93858.94;513749;28;852;-46
2023/08/22 00:28:14;;;;;;;4.90;4.38;;;;;;;21.19;65.29;93856.88;513798;28;1085;-47
2023/08/22 00:28:29;;;;;;;4.97;4.07;;;;;;;21.20;65.23;93852.00;513652;28;877;-46
2023/08/22 00:28:44;;;;;;;4.18;3.50;;;;;;;21.20;65.11;93861.16;513771;28;897;-47
2023/08/22 00:29:00;;;;;;;4.13;3.63;;;;;;;21.21;65.01;93861.88;513648;28;1107;-45
2023/08/22 00:29:15;;;;;;;4.70;4.07;;;;;;;21.20;65.04;93858.38;513792;28;1567;-46
2023/08/22 00:29:30;;;;;;;5.15;4.22;;;;;;;21.22;64.99;93860.56;513761;28;990;-46
2023/08/22 00:29:46;;;;;;;4.40;3.87;;;;;;;21.21;65.08;93857.00;513704;28;1187;-46
2023/08/22 00:30:02;;;;;;;4.10;3.70;;;;;;;21.22;65.13;93863.34;513784;28;876;-46
2023/08/22 00:30:17;;;;;;;4.75;3.60;;;;;;;21.22;65.08;93858.47;513780;28;899;-46
2023/08/22 00:30:33;;;;;;;4.97;3.50;;;;;;;21.22;65.07;93852.13;513609;28;1039;-47
2023/08/22 00:30:48;;;;;;;4.13;3.73;;;;;;;21.22;65.11;93852.88;513460;28;1747;-46
2023/08/22 00:31:03;;;;;;;4.67;3.87;;;;;;;21.22;64.96;93852.88;512927;28;877;-47
2023/08/22 00:31:19;;;;;;;4.60;3.70;;;;;;;21.22;64.97;93852.13;511832;28;857;-47
2023/08/22 00:31:34;;;;;;;4.10;3.63;;;;;;;21.22;65.00;93852.13;513723;28;840;-47
2023/08/22 00:31:50;;;;;;;4.03;3.63;;;;;;;21.21;64.97;93857.00;513612;28;1206;-46
2023/08/22 00:32:05;;;;;;;4.07;3.67;;;;;;;21.21;65.05;93856.25;513785;28;872;-45
2023/08/22 00:32:20;;;;;;;4.37;3.97;;;;;;;21.21;64.97;93850.66;513718;28;971;-47
2023/08/22 00:32:36;;;;;;;4.03;3.63;;;;;;;21.20;65.04;93849.19;513687;28;1016;-47
2023/08/22 00:32:51;;;;;;;4.13;3.70;;;;;;;21.20;65.05;93844.31;513872;28;801;-47
2023/08/22 00:33:06;;;;;;;4.77;4.20;;;;;;;21.20;65.13;93849.19;513819;28;817;-46
2023/08/22 00:33:22;;;;;;;4.30;3.90;;;;;;;21.20;65.04;93847.13;513669;28;1110;-47
2023/08/22 00:33:37;;;;;;;3.93;3.57;;;;;;;21.20;65.04;93846.38;513641;28;1071;-46
2023/08/22 00:33:52;;;;;;;4.20;3.80;;;;;;;21.19;65.07;93842.84;513800;28;889;-46
2023/08/22 00:34:08;;;;;;;4.70;4.20;;;;;;;21.19;65.23;93848.47;513302;28;1354;-47
2023/08/22 00:34:23;;;;;;;4.60;4.07;;;;;;;21.19;65.18;93834.41;512992;28;1739;-46
2023/08/22 00:34:38;;;;;;;4.38;3.90;;;;;;;21.18;65.22;93846.97;513756;28;920;-47
2023/08/22 00:34:54;;;;;;;4.33;3.93;;;;;;;21.19;65.29;93848.47;512151;28;869;-48
2023/08/22 00:35:09;;;;;;;4.30;3.90;;;;;;;21.19;65.21;93842.84;513548;28;1561;-47
2023/08/22 00:35:28;;;;;;;4.43;3.88;;;;;;;21.20;65.35;93843.59;513764;28;805;-47
2023/08/22 00:35:43;;;;;;;3.88;3.47;;;;;;;21.20;65.25;93849.19;513709;28;959;-46
2023/08/22 00:35:59;;;;;;;4.57;3.57;;;;;;;21.20;65.21;93843.59;513813;28;1027;-45
2023/08/22 00:36:14;;;;;;;4.67;3.70;;;;;;;21.20;65.26;93843.59;513744;28;852;-46
2023/08/22 00:36:30;;;;;;;4.18;3.78;;;;;;;21.18;65.15;93844.16;513645;28;924;-45
2023/08/22 00:36:45;;;;;;;4.20;3.80;;;;;;;21.20;65.08;93844.31;513845;28;824;-46
2023/08/22 00:37:00;;;;;;;4.10;3.80;;;;;;;21.19;65.14;93847.72;512808;28;1743;-47
2023/08/22 00:37:16;;;;;;;4.32;3.92;;;;;;;21.20;65.14;93843.59;513109;28;786;-46
2023/08/22 00:37:31;;;;;;;4.03;3.63;;;;;;;21.19;65.04;93844.91;513711;28;942;-46
2023/08/22 00:37:47;;;;;;;4.10;3.70;;;;;;;21.19;64.65;93845.66;513722;28;852;-47
2023/08/22 00:38:02;;;;;;;4.50;3.80;;;;;;;21.19;65.07;93842.84;513476;28;1091;-48
2023/08/22 00:38:17;;;;;;;4.47;3.83;;;;;;;21.19;65.03;93847.72;513853;28;781;-46
2023/08/22 00:38:33;;;;;;;4.13;3.80;;;;;;;21.19;65.15;93842.84;513771;28;856;-47
2023/08/22 00:38:48;;;;;;;4.20;3.80;;;;;;;21.18;65.21;93844.16;513816;28;790;-49
2023/08/22 00:39:04;;;;;;;4.90;4.37;;;;;;;21.19;65.26;93845.66;513754;28;865;-47
2023/08/22 00:39:19;;;;;;;4.40;4.00;;;;;;;21.19;65.27;93842.09;513808;28;892;-46
2023/08/22 00:39:35;;;;;;;3.70;3.40;;;;;;;21.18;65.42;93841.38;513387;28;1048;-47
2023/08/22 00:39:50;;;;;;;3.97;3.60;;;;;;;21.19;65.35;93836.50;513667;28;1910;-46
2023/08/22 00:40:07;;;;;;;4.13;3.72;;;;;;;21.19;65.29;93842.84;513766;28;904;-46
2023/08/22 00:40:22;;;;;;;3.92;3.53;;;;;;;21.20;65.18;93837.97;513696;28;841;-46
2023/08/22 00:40:38;;;;;;;4.13;3.72;;;;;;;21.20;65.18;93837.97;513766;28;912;-46
2023/08/22 00:40:53;;;;;;;4.30;3.90;;;;;;;21.19;65.12;93839.28;513991;28;841;-46
2023/08/22 00:41:08;;;;;;;4.05;3.70;;;;;;;21.18;65.13;93840.66;514036;28;1135;-47
2023/08/22 00:41:24;;;;;;;4.00;3.67;;;;;;;21.17;65.12;93837.09;513427;28;1680;-46
2023/08/22 00:41:39;;;;;;;4.23;3.83;;;;;;;21.18;65.17;93835.03;514035;28;900;-46
2023/08/22 00:41:54;;;;;;;4.10;3.72;;;;;;;21.18;64.99;93837.84;512732;28;959;-46
2023/08/22 00:42:10;;;;;;;4.03;3.63;;;;;;;21.18;64.88;93843.47;512160;28;986;-47
2023/08/22 00:42:25;;;;;;;4.20;3.67;;;;;;;21.17;64.99;93839.16;512924;28;1106;-46
2023/08/22 00:42:41;;;;;;;4.07;3.67;;;;;;;21.17;65.09;93833.56;514113;28;1052;-46
2023/08/22 00:42:57;;;;;;;4.17;3.77;;;;;;;21.17;64.86;93839.16;514134;28;836;-48
2023/08/22 00:43:12;;;;;;;4.30;3.90;;;;;;;21.17;64.78;93839.16;514151;28;889;-47
2023/08/22 00:43:27;;;;;;;4.57;4.00;;;;;;;21.16;65.03;93832.09;514034;28;850;-46
2023/08/22 00:43:43;;;;;;;5.47;3.97;;;;;;;21.15;65.00;93839.78;514123;28;816;-46
2023/08/22 00:43:59;;;;;;;6.27;3.80;;;;;;;21.16;64.92;93834.91;514005;28;943;-47
2023/08/22 00:44:14;;;;;;;5.15;3.70;;;;;;;21.16;65.03;93843.34;514105;28;900;-46
2023/08/22 00:44:30;;;;;;;3.97;3.63;;;;;;;21.14;65.00;93839.06;514123;28;833;-47
2023/08/22 00:44:45;;;;;;;3.80;3.50;;;;;;;21.15;65.03;93839.78;513235;28;1759;-47
2023/08/22 00:45:00;;;;;;;4.17;3.77;;;;;;;21.14;65.17;93836.25;513487;28;848;-47
2023/08/22 00:45:16;;;;;;;4.57;4.07;;;;;;;21.14;64.99;93836.25;512785;28;832;-47
2023/08/22 00:45:31;;;;;;;4.50;4.00;;;;;;;21.14;65.00;93836.25;513664;28;1024;-46
2023/08/22 00:45:47;;;;;;;4.30;3.90;;;;;;;21.14;64.81;93835.50;514007;28;915;-47
2023/08/22 00:46:03;;;;;;;4.30;3.90;;;;;;;21.14;64.92;93835.50;514147;28;853;-48
2023/08/22 00:46:20;;;;;;;4.43;4.03;;;;;;;21.14;64.86;93841.13;514005;28;809;-48
2023/08/22 00:46:35;;;;;;;4.47;4.07;;;;;;;21.13;64.81;93843.22;515533;28;886;-47
2023/08/22 00:46:51;;;;;;;4.30;3.90;;;;;;;21.13;64.79;93840.41;514828;28;916;-47
2023/08/22 00:47:06;;;;;;;4.30;3.90;;;;;;;21.12;64.95;93850.16;513820;28;1159;-47
2023/08/22 00:47:22;;;;;;;4.32;3.92;;;;;;;21.11;64.84;93842.34;514013;28;908;-47
2023/08/22 00:47:38;;;;;;;4.13;3.72;;;;;;;21.10;64.77;93849.31;513829;28;793;-48
2023/08/22 00:47:53;;;;;;;4.13;3.73;;;;;;;21.10;64.81;93840.88;512042;28;844;-47
2023/08/22 00:48:09;;;;;;;4.20;3.70;;;;;;;21.10;64.71;93835.25;511307;28;912;-47
2023/08/22 00:48:24;;;;;;;4.63;3.80;;;;;;;21.10;64.73;93835.25;510009;28;766;-47
2023/08/22 00:48:39;;;;;;;4.70;3.60;;;;;;;21.09;64.65;93834.53;509940;29;1104;-47
2023/08/22 00:48:55;;;;;;;5.20;3.53;;;;;;;21.09;64.82;93833.81;510417;29;834;-48
2023/08/22 00:49:11;;;;;;;5.90;3.75;;;;;;;21.09;64.75;93834.53;509854;29;1733;-47
2023/08/22 00:49:26;;;;;;;4.47;3.50;;;;;;;21.08;64.82;93838.69;510033;29;801;-48
2023/08/22 00:49:42;;;;;;;4.03;3.63;;;;;;;21.07;64.87;93830.88;512184;28;1143;-47
2023/08/22 00:49:57;;;;;;;4.60;4.20;;;;;;;21.07;64.91;93830.88;513843;28;1340;-47
2023/08/22 00:50:12;;;;;;;4.50;4.10;;;;;;;21.07;64.93;93828.06;513970;28;932;-49
2023/08/22 00:50:28;;;;;;;4.30;3.90;;;;;;;21.06;64.93;93830.13;513869;28;915;-48
2023/08/22 00:50:43;;;;;;;4.37;3.90;;;;;;;21.05;64.95;93828.66;511982;28;837;-46
2023/08/22 00:50:58;;;;;;;3.97;3.53;;;;;;;21.06;64.99;93835.75;512161;28;972;-46
2023/08/22 00:51:15;;;;;;;4.05;3.65;;;;;;;21.06;65.00;93829.41;513914;28;937;-47
2023/08/22 00:51:30;;;;;;;4.20;3.80;;;;;;;21.04;64.83;93827.22;513840;28;1227;-48
2023/08/22 00:51:46;;;;;;;4.33;3.93;;;;;;;21.05;64.90;93836.38;513902;28;870;-47
2023/08/22 00:52:02;;;;;;;4.43;4.03;;;;;;;21.04;64.90;93832.81;513424;28;1692;-47
2023/08/22 00:52:18;;;;;;;3.95;3.65;;;;;;;21.04;65.01;93827.22;513900;28;805;-47
2023/08/22 00:52:34;;;;;;;4.13;3.83;;;;;;;21.04;65.08;93827.22;512426;28;1090;-48
2023/08/22 00:52:49;;;;;;;5.77;4.50;;;;;;;21.04;65.11;93832.81;513796;28;1142;-48
2023/08/22 00:53:04;;;;;;;5.97;4.50;;;;;;;21.02;65.22;93829.88;511948;29;904;-47
2023/08/22 00:53:20;;;;;;;4.23;3.83;;;;;;;21.03;65.18;93836.97;511956;29;886;-47
2023/08/22 00:53:35;;;;;;;4.22;3.55;;;;;;;21.06;65.13;93835.75;511906;29;817;-46
2023/08/22 00:53:51;;;;;;;4.63;3.93;;;;;;;21.06;65.11;93843.44;511897;29;876;-48
2023/08/22 00:54:06;;;;;;;4.40;3.90;;;;;;;21.03;65.05;93827.81;511991;29;813;-47
2023/08/22 00:54:23;;;;;;;4.35;3.72;;;;;;;21.05;65.04;93839.91;510271;29;1148;-46
2023/08/22 00:54:38;;;;;;;4.03;3.60;;;;;;;21.01;64.88;93828.38;511603;29;1807;-46
2023/08/22 00:54:54;;;;;;;4.45;3.97;;;;;;;21.03;64.92;93831.34;512394;28;921;-47
2023/08/22 00:55:09;;;;;;;5.13;4.43;;;;;;;21.04;64.90;93838.44;513018;28;897;-46
2023/08/22 00:55:25;;;;;;;4.93;4.43;;;;;;;21.04;64.96;93837.69;510682;29;794;-46
2023/08/22 00:55:40;;;;;;;4.57;4.17;;;;;;;21.03;64.90;93834.16;511890;28;839;-46
2023/08/22 00:55:55;;;;;;;4.50;4.10;;;;;;;21.03;64.90;93842.56;511896;29;1159;-47
2023/08/22 00:56:11;;;;;;;4.72;4.22;;;;;;;20.95;64.99;93830.84;512412;28;858;-46
2023/08/22 00:56:26;;;;;;;4.50;4.10;;;;;;;21.03;64.96;93830.59;513843;28;1133;-47
2023/08/22 00:56:42;;;;;;;4.83;4.27;;;;;;;21.03;64.94;93839.03;511933;29;956;-47
2023/08/22 00:56:57;;;;;;;4.68;4.18;;;;;;;21.01;65.01;93834.00;511910;29;892;-49
2023/08/22 00:57:13;;;;;;;5.03;4.00;;;;;;;21.02;65.07;93843.91;512370;28;892;-46
2023/08/22 00:57:28;;;;;;;5.03;3.97;;;;;;;21.01;65.04;93839.63;513806;28;1139;-46
2023/08/22 00:57:44;;;;;;;4.05;3.65;;;;;;;21.01;65.12;93836.06;513774;28;1030;-46
2023/08/22 00:58:00;;;;;;;4.43;3.60;;;;;;;21.00;65.17;93843.03;513960;28;820;-46
2023/08/22 00:58:15;;;;;;;4.50;3.72;;;;;;;20.99;65.10;93839.50;512001;29;876;-47
2023/08/22 00:58:31;;;;;;;4.03;3.63;;;;;;;20.99;65.12;93835.94;511869;29;1149;-48
2023/08/22 00:58:46;;;;;;;3.70;3.30;;;;;;;20.99;65.09;93841.56;512333;28;1190;-47
2023/08/22 00:59:03;;;;;;;4.00;3.30;;;;;;;20.95;65.00;93832.91;511974;29;830;-46
2023/08/22 00:59:18;;;;;;;4.20;3.65;;;;;;;20.98;65.03;93837.31;511525;28;1760;-46
2023/08/22 00:59:34;;;;;;;4.77;3.80;;;;;;;20.97;64.95;93835.81;509913;29;889;-47
2023/08/22 00:59:50;;;;;;;4.57;3.78;;;;;;;20.96;65.01;93832.28;507825;29;1923;-47
2023/08/22 01:00:07;;;;;;;3.65;3.33;;;;;;;20.96;64.93;93840.69;508583;29;889;-47
2023/08/22 01:00:22;;;;;;;3.75;3.45;;;;;;;20.94;65.11;93840.56;509829;29;1104;-48
2023/08/22 01:00:38;;;;;;;4.10;3.70;;;;;;;20.94;65.09;93840.56;509973;29;972;-46
2023/08/22 01:00:53;;;;;;;4.03;3.50;;;;;;;20.92;65.05;93834.84;510699;29;817;-46
2023/08/22 01:01:08;;;;;;;4.15;3.35;;;;;;;20.92;65.03;93839.75;511932;28;1203;-47
2023/08/22 01:01:25;;;;;;;4.00;3.60;;;;;;;20.91;65.13;93829.84;512426;28;819;-46
2023/08/22 01:01:40;;;;;;;3.95;3.65;;;;;;;20.91;65.03;93839.00;512461;28;851;-47
2023/08/22 01:01:55;;;;;;;4.07;3.67;;;;;;;20.91;65.13;93839.00;513448;28;1465;-47
2023/08/22 01:02:11;;;;;;;4.32;3.90;;;;;;;20.88;65.17;93831.78;513918;28;939;-46
2023/08/22 01:02:26;;;;;;;3.93;3.60;;;;;;;20.89;65.05;93830.47;511864;29;825;-47
2023/08/22 01:02:42;;;;;;;3.80;3.50;;;;;;;20.90;65.19;93843.13;509980;29;919;-49
2023/08/22 01:02:57;;;;;;;5.40;3.95;;;;;;;20.90;65.20;93840.34;509771;29;2554;-47
2023/08/22 01:03:13;;;;;;;5.63;3.93;;;;;;;20.91;65.17;93832.66;509979;29;845;-49
2023/08/22 01:03:28;;;;;;;4.10;3.70;;;;;;;20.84;65.15;93823.13;510033;29;1159;-48
2023/08/22 01:03:44;;;;;;;4.23;3.83;;;;;;;20.90;65.27;93840.34;511925;29;813;-48
2023/08/22 01:03:59;;;;;;;4.40;3.75;;;;;;;20.90;65.28;93834.72;511825;29;932;-47
2023/08/22 01:04:15;;;;;;;4.10;3.37;;;;;;;20.89;65.30;93838.88;512272;28;932;-47
2023/08/22 01:04:30;;;;;;;4.25;3.78;;;;;;;20.89;65.35;93836.06;513811;28;1180;-47
2023/08/22 01:04:46;;;;;;;4.47;4.00;;;;;;;20.89;65.36;93836.06;512360;28;1640;-46
2023/08/22 01:05:02;;;;;;;4.10;3.58;;;;;;;20.89;65.33;93840.94;512057;28;1178;-47
2023/08/22 01:05:19;;;;;;;4.32;3.58;;;;;;;20.89;65.26;93843.75;513533;28;1247;-49
2023/08/22 01:05:37;;;;;;;3.83;3.45;;;;;;;20.89;65.24;93841.69;513885;28;834;-47
2023/08/22 01:05:59;;;;;;;4.25;3.78;;;;;;;20.88;65.33;93840.22;513886;28;896;-48
2023/08/22 01:06:20;;;;;;;4.28;3.88;;;;;;;20.88;65.60;93831.06;513868;28;1120;-48
2023/08/22 01:06:51;;;;;;;4.40;4.00;;;;;;;20.87;65.60;93835.94;513677;28;1708;-48
2023/08/22 01:07:33;;;;;;;4.38;3.97;;;;;;;20.85;65.63;93835.84;511827;28;955;-48
2023/08/22 01:08:06;;;;;;;4.07;3.67;;;;;;;20.82;65.67;93834.22;513594;28;1612;-48
2023/08/22 01:08:29;;;;;;;4.22;3.83;;;;;;;20.84;65.73;93842.03;513794;28;991;-48
2023/08/22 01:08:47;;;;;;;3.97;3.53;;;;;;;20.83;65.71;93840.56;514001;28;963;-48
2023/08/22 01:09:11;;;;;;;4.07;3.67;;;;;;;20.84;65.66;93839.97;513973;28;812;-48
2023/08/22 01:09:32;;;;;;;4.05;3.65;;;;;;;20.83;65.65;93835.72;513755;28;1648;-48
2023/08/22 01:10:32;;;;;;;4.05;3.65;;;;;;;20.82;66.14;93836.28;511755;29;865;-47
2023/08/22 01:10:53;;;;;;;3.75;3.45;;;;;;;20.81;66.34;93829.22;509604;28;1127;-48
2023/08/22 01:11:19;;;;;;;4.00;3.30;;;;;;;20.80;66.37;93827.75;509734;29;1375;-48
2023/08/22 01:11:38;;;;;;;5.78;4.57;;;;;;;20.71;66.24;93818.09;507572;29;860;-48
2023/08/22 01:11:58;;;;;;;4.70;4.28;;;;;;;20.79;66.30;93838.25;507861;29;990;-47
2023/08/22 01:12:27;;;;;;;4.20;3.80;;;;;;;20.79;66.30;93837.53;507842;29;890;-48
2023/08/22 01:12:49;;;;;;;4.22;3.83;;;;;;;20.78;66.33;93839.59;504699;29;882;-47
2023/08/22 01:13:12;;;;;;;4.07;3.67;;;;;;;20.78;66.39;93836.03;503352;29;887;-47
2023/08/22 01:13:35;;;;;;;4.20;3.80;;;;;;;20.77;66.36;93843.72;506049;29;907;-48
2023/08/22 01:13:51;;;;;;;4.35;3.95;;;;;;;20.78;66.47;93839.59;509132;29;1084;-46
2023/08/22 01:14:09;;;;;;;4.65;4.25;;;;;;;20.78;66.67;93838.84;505931;29;795;-47
2023/08/22 01:14:27;;;;;;;4.13;3.75;;;;;;;20.78;66.64;93841.66;507443;29;1870;-50
2023/08/22 01:14:45;;;;;;;4.25;3.85;;;;;;;20.76;66.79;93841.53;505950;29;837;-47
2023/08/22 01:15:05;;;;;;;4.50;4.10;;;;;;;20.74;66.64;93842.16;505231;29;833;-48
2023/08/22 01:15:28;;;;;;;4.70;4.20;;;;;;;20.74;66.64;93841.41;506579;29;1002;-49
2023/08/22 01:15:43;;;;;;;5.07;4.40;;;;;;;20.73;66.62;93840.66;507803;29;944;-47
2023/08/22 01:16:00;;;;;;;4.90;4.32;;;;;;;20.72;66.72;93847.63;508683;29;1590;-47
2023/08/22 01:16:16;;;;;;;4.45;4.05;;;;;;;20.71;66.67;93840.53;509815;29;903;-47
2023/08/22 01:16:32;;;;;;;4.07;3.73;;;;;;;20.71;66.66;93843.34;507814;29;907;-49
2023/08/22 01:16:48;;;;;;;4.38;3.97;;;;;;;20.67;66.78;93833.94;509055;29;1081;-50
2023/08/22 01:17:04;;;;;;;4.93;4.43;;;;;;;20.71;66.65;93843.34;509542;29;1717;-48
2023/08/22 01:17:20;;;;;;;4.70;4.20;;;;;;;20.63;66.87;93833.69;511583;29;839;-48
2023/08/22 01:17:36;;;;;;;4.43;4.03;;;;;;;20.71;66.58;93843.34;511677;29;1146;-49
2023/08/22 01:17:56;;;;;;;4.55;4.07;;;;;;;20.71;66.49;93840.53;512787;28;967;-49
2023/08/22 01:18:14;;;;;;;4.43;4.00;;;;;;;20.71;66.47;93839.81;511931;28;904;-47
2023/08/22 01:18:29;;;;;;;4.32;3.92;;;;;;;20.69;66.60;93836.88;513284;28;1087;-48
2023/08/22 01:18:45;;;;;;;4.63;4.23;;;;;;;20.70;66.59;93839.09;515912;28;832;-48
2023/08/22 01:19:04;;;;;;;4.93;4.43;;;;;;;20.73;66.57;93839.94;515958;28;925;-47
2023/08/22 01:19:20;;;;;;;4.60;4.15;;;;;;;20.71;66.60;93846.16;513845;28;867;-49
2023/08/22 01:19:35;;;;;;;4.33;3.93;;;;;;;20.72;66.48;93841.28;514445;28;1714;-47